Urb Las Aguilas, Puerto Rico
Current Conditions -  °F | °C
As of 4:56 PM on Friday 31 Oct 2014 (Local Time) from TJSJ Reporting Station
Scattered Clouds Scattered Clouds  
Wind Chill: 85°   Ceiling: Unl
Heat Index: 92°   Visibility: 10mi
Dew Point: 73°   Wind: 6mph
Humidity: 67%   Direction: 150°SSE
Pressure: 29.86"   Gusts: NA
Location:  18.0836°N, 66.3566°W
Report Text: TJSJ 312056Z 15005KT 10SM FEW040 SCT065 SCT100 29/23 A2986 RMK AO2 SLP110 T02940228 51002
Loading
Personal Weather Stations






























Interactive Weather Map
Tropical Storm Tracking
New forecast layout! Learn more

10-Day Weather Forecast

Advertisements
Track Severe Weather on mobile